sensor_id;sensor_type;location;lat;lon;timestamp;pressure;altitude;pressure_sealevel;temperature;humidity
11676;BME280;5894;42.768;23.404;2024-02-15T00:01:08;96088.16;;;5.03;100.00
11676;BME280;5894;42.768;23.404;2024-02-15T00:03:35;96092.84;;;4.96;100.00
11676;BME280;5894;42.768;23.404;2024-02-15T00:06:03;96087.03;;;4.89;100.00
11676;BME280;5894;42.768;23.404;2024-02-15T00:08:30;96088.66;;;4.95;100.00
11676;BME280;5894;42.768;23.404;2024-02-15T00:10:58;96088.34;;;4.87;100.00
11676;BME280;5894;42.768;23.404;2024-02-15T00:13:25;96086.50;;;4.87;100.00
11676;BME280;5894;42.768;23.404;2024-02-15T00:15:52;96084.34;;;4.79;100.00
11676;BME280;5894;42.768;23.404;2024-02-15T00:18:19;96088.53;;;4.75;100.00
11676;BME280;5894;42.768;23.404;2024-02-15T00:20:46;96090.13;;;4.81;100.00
11676;BME280;5894;42.768;23.404;2024-02-15T00:23:14;96092.72;;;4.76;100.00
11676;BME280;5894;42.768;23.404;2024-02-15T00:25:42;96089.75;;;4.67;100.00
11676;BME280;5894;42.768;23.404;2024-02-15T00:28:10;96091.09;;;4.70;100.00
11676;BME280;5894;42.768;23.404;2024-02-15T00:30:37;96090.81;;;4.66;100.00
11676;BME280;5894;42.768;23.404;2024-02-15T00:33:04;96097.88;;;4.66;100.00
11676;BME280;5894;42.768;23.404;2024-02-15T00:35:31;96097.31;;;4.64;100.00
11676;BME280;5894;42.768;23.404;2024-02-15T00:37:58;96101.97;;;4.57;100.00
11676;BME280;5894;42.768;23.404;2024-02-15T00:40:26;96091.00;;;4.55;100.00
11676;BME280;5894;42.768;23.404;2024-02-15T00:42:53;96092.28;;;4.52;100.00
11676;BME280;5894;42.768;23.404;2024-02-15T00:45:20;96091.00;;;4.55;100.00
11676;BME280;5894;42.768;23.404;2024-02-15T00:47:47;96088.88;;;4.52;100.00
11676;BME280;5894;42.768;23.404;2024-02-15T00:50:14;96092.75;;;4.49;100.00
11676;BME280;5894;42.768;23.404;2024-02-15T00:52:41;96089.59;;;4.47;100.00
11676;BME280;5894;42.768;23.404;2024-02-15T00:55:08;96087.75;;;4.42;100.00
11676;BME280;5894;42.768;23.404;2024-02-15T00:57:36;96087.22;;;4.40;100.00
11676;BME280;5894;42.768;23.404;2024-02-15T01:00:04;96085.06;;;4.32;100.00
11676;BME280;5894;42.768;23.404;2024-02-15T01:02:31;96080.09;;;4.31;100.00
11676;BME280;5894;42.768;23.404;2024-02-15T01:04:59;96092.69;;;4.39;100.00
11676;BME280;5894;42.768;23.404;2024-02-15T01:07:26;96094.25;;;4.40;100.00
11676;BME280;5894;42.768;23.404;2024-02-15T01:09:53;96102.56;;;4.37;100.00
11676;BME280;5894;42.768;23.404;2024-02-15T01:12:20;96096.63;;;4.41;100.00
11676;BME280;5894;42.768;23.404;2024-02-15T01:14:48;96094.56;;;4.43;100.00
11676;BME280;5894;42.768;23.404;2024-02-15T01:17:16;96095.88;;;4.46;100.00
11676;BME280;5894;42.768;23.404;2024-02-15T01:19:43;96096.94;;;4.50;100.00
11676;BME280;5894;42.768;23.404;2024-02-15T01:22:10;96097.19;;;4.49;100.00
11676;BME280;5894;42.768;23.404;2024-02-15T01:24:38;96088.31;;;4.50;100.00
11676;BME280;5894;42.768;23.404;2024-02-15T01:27:05;96089.41;;;4.54;100.00
11676;BME280;5894;42.768;23.404;2024-02-15T01:29:32;96086.00;;;4.53;100.00
11676;BME280;5894;42.768;23.404;2024-02-15T01:32:01;96072.88;;;4.43;100.00
11676;BME280;5894;42.768;23.404;2024-02-15T01:34:29;96086.56;;;4.55;100.00
11676;BME280;5894;42.768;23.404;2024-02-15T01:36:55;96089.19;;;4.60;100.00
11676;BME280;5894;42.768;23.404;2024-02-15T01:39:22;96094.91;;;4.57;100.00
11676;BME280;5894;42.768;23.404;2024-02-15T01:41:49;96057.41;;;4.36;100.00
11676;BME280;5894;42.768;23.404;2024-02-15T01:44:17;96085.72;;;4.50;100.00
11676;BME280;5894;42.768;23.404;2024-02-15T01:46:47;96086.56;;;4.55;100.00
11676;BME280;5894;42.768;23.404;2024-02-15T01:49:16;96093.63;;;4.60;100.00
11676;BME280;5894;42.768;23.404;2024-02-15T01:51:44;96092.56;;;4.56;100.00
11676;BME280;5894;42.768;23.404;2024-02-15T01:54:11;96089.69;;;4.57;100.00
11676;BME280;5894;42.768;23.404;2024-02-15T01:56:41;96093.13;;;4.63;100.00
11676;BME280;5894;42.768;23.404;2024-02-15T01:59:10;96100.72;;;4.64;100.00
11676;BME280;5894;42.768;23.404;2024-02-15T02:01:38;96097.31;;;4.64;100.00
11676;BME280;5894;42.768;23.404;2024-02-15T02:04:05;96097.81;;;4.61;100.00
11676;BME280;5894;42.768;23.404;2024-02-15T02:06:34;96094.22;;;4.67;100.00
11676;BME280;5894;42.768;23.404;2024-02-15T02:09:03;96098.84;;;4.60;100.00
11676;BME280;5894;42.768;23.404;2024-02-15T02:11:30;96094.97;;;4.62;100.00
11676;BME280;5894;42.768;23.404;2024-02-15T02:13:58;96097.25;;;4.54;100.00
11676;BME280;5894;42.768;23.404;2024-02-15T02:16:25;96093.59;;;4.55;100.00
11676;BME280;5894;42.768;23.404;2024-02-15T02:18:54;96098.34;;;4.63;100.00
11676;BME280;5894;42.768;23.404;2024-02-15T02:21:21;96102.47;;;4.54;100.00
11676;BME280;5894;42.768;23.404;2024-02-15T02:23:52;96086.50;;;4.50;100.00
11676;BME280;5894;42.768;23.404;2024-02-15T02:26:22;96099.31;;;4.52;100.00
11676;BME280;5894;42.768;23.404;2024-02-15T02:28:49;96102.16;;;4.45;100.00
11676;BME280;5894;42.768;23.404;2024-02-15T02:31:18;96097.41;;;4.42;100.00
11676;BME280;5894;42.768;23.404;2024-02-15T02:33:48;96100.19;;;4.30;100.00
11676;BME280;5894;42.768;23.404;2024-02-15T02:36:17;96101.22;;;4.29;100.00
11676;BME280;5894;42.768;23.404;2024-02-15T02:38:44;96113.25;;;4.30;100.00
11676;BME280;5894;42.768;23.404;2024-02-15T02:41:12;96104.91;;;4.33;100.00
11676;BME280;5894;42.768;23.404;2024-02-15T02:43:40;96111.72;;;4.34;100.00
11676;BME280;5894;42.768;23.404;2024-02-15T02:46:10;96108.50;;;4.27;100.00
11676;BME280;5894;42.768;23.404;2024-02-15T02:48:38;96112.69;;;4.28;100.00
11676;BME280;5894;42.768;23.404;2024-02-15T02:51:06;96112.41;;;4.25;100.00
11676;BME280;5894;42.768;23.404;2024-02-15T02:53:33;96113.97;;;4.26;100.00
11676;BME280;5894;42.768;23.404;2024-02-15T02:56:01;96116.84;;;4.24;100.00
11676;BME280;5894;42.768;23.404;2024-02-15T02:58:29;96115.31;;;4.28;100.00
11676;BME280;5894;42.768;23.404;2024-02-15T03:00:57;96113.69;;;4.22;100.00
11676;BME280;5894;42.768;23.404;2024-02-15T03:03:26;96111.34;;;4.26;100.00
11676;BME280;5894;42.768;23.404;2024-02-15T03:05:53;96116.34;;;4.27;100.00
11676;BME280;5894;42.768;23.404;2024-02-15T03:08:20;96118.44;;;4.25;100.00
11676;BME280;5894;42.768;23.404;2024-02-15T03:10:48;96115.03;;;4.25;100.00
11676;BME280;5894;42.768;23.404;2024-02-15T03:13:15;96115.22;;;4.18;100.00
11676;BME280;5894;42.768;23.404;2024-02-15T03:15:44;96114.50;;;4.28;100.00
11676;BME280;5894;42.768;23.404;2024-02-15T03:18:15;96122.09;;;4.29;100.00
11676;BME280;5894;42.768;23.404;2024-02-15T03:20:42;96126.78;;;4.27;100.00
11676;BME280;5894;42.768;23.404;2024-02-15T03:23:08;96127.00;;;4.21;100.00
11676;BME280;5894;42.768;23.404;2024-02-15T03:25:36;96120.25;;;4.25;100.00
11676;BME280;5894;42.768;23.404;2024-02-15T03:28:04;96131.19;;;4.22;100.00
11676;BME280;5894;42.768;23.404;2024-02-15T03:30:32;96127.47;;;4.18;100.00
11676;BME280;5894;42.768;23.404;2024-02-15T03:32:59;96135.81;;;4.15;100.00
11676;BME280;5894;42.768;23.404;2024-02-15T03:35:28;96121.38;;;4.07;100.00
11676;BME280;5894;42.768;23.404;2024-02-15T03:37:57;96129.25;;;4.12;100.00
11676;BME280;5894;42.768;23.404;2024-02-15T03:40:24;96132.41;;;4.14;100.00
11676;BME280;5894;42.768;23.404;2024-02-15T03:42:52;96073.53;;;3.75;100.00
11676;BME280;5894;42.768;23.404;2024-02-15T03:45:19;96124.03;;;4.12;100.00
11676;BME280;5894;42.768;23.404;2024-02-15T03:47:50;96122.41;;;4.06;100.00
11676;BME280;5894;42.768;23.404;2024-02-15T03:50:18;96088.03;;;3.87;100.00
11676;BME280;5894;42.768;23.404;2024-02-15T03:52:48;96124.19;;;4.00;100.00
11676;BME280;5894;42.768;23.404;2024-02-15T03:55:15;96121.81;;;3.99;100.00
11676;BME280;5894;42.768;23.404;2024-02-15T03:57:42;96115.00;;;3.98;100.00
11676;BME280;5894;42.768;23.404;2024-02-15T04:00:12;96116.78;;;3.92;100.00
11676;BME280;5894;42.768;23.404;2024-02-15T04:02:39;96125.50;;;4.03;100.00
11676;BME280;5894;42.768;23.404;2024-02-15T04:05:07;96133.53;;;3.96;100.00
11676;BME280;5894;42.768;23.404;2024-02-15T04:07:35;96126.72;;;3.95;100.00
11676;BME280;5894;42.768;23.404;2024-02-15T04:10:05;96128.53;;;3.95;100.00
11676;BME280;5894;42.768;23.404;2024-02-15T04:12:33;96130.13;;;3.74;100.00
11676;BME280;5894;42.768;23.404;2024-02-15T04:15:00;96137.50;;;3.77;100.00
11676;BME280;5894;42.768;23.404;2024-02-15T04:17:31;96131.44;;;3.72;100.00
11676;BME280;5894;42.768;23.404;2024-02-15T04:20:00;96134.09;;;3.77;100.00
11676;BME280;5894;42.768;23.404;2024-02-15T04:22:29;96133.06;;;3.78;100.00
11676;BME280;5894;42.768;23.404;2024-02-15T04:24:57;96129.53;;;3.67;100.00
11676;BME280;5894;42.768;23.404;2024-02-15T04:27:25;96136.41;;;3.73;100.00
11676;BME280;5894;42.768;23.404;2024-02-15T04:29:52;96145.78;;;3.74;100.00
11676;BME280;5894;42.768;23.404;2024-02-15T04:32:21;96139.75;;;3.68;100.00
11676;BME280;5894;42.768;23.404;2024-02-15T04:34:48;96145.28;;;3.72;100.00
11676;BME280;5894;42.768;23.404;2024-02-15T04:37:14;96137.69;;;3.71;100.00
11676;BME280;5894;42.768;23.404;2024-02-15T04:39:42;96143.50;;;3.78;100.00
11676;BME280;5894;42.768;23.404;2024-02-15T04:42:09;96145.03;;;3.74;100.00
11676;BME280;5894;42.768;23.404;2024-02-15T04:44:39;96151.31;;;3.78;100.00
11676;BME280;5894;42.768;23.404;2024-02-15T04:47:06;96151.63;;;3.81;100.00
11676;BME280;5894;42.768;23.404;2024-02-15T04:49:34;96154.00;;;3.83;100.00
11676;BME280;5894;42.768;23.404;2024-02-15T04:52:04;96157.34;;;3.78;100.00
11676;BME280;5894;42.768;23.404;2024-02-15T04:54:32;96154.41;;;3.75;100.00
11676;BME280;5894;42.768;23.404;2024-02-15T04:56:59;96164.13;;;3.79;100.00
11676;BME280;5894;42.768;23.404;2024-02-15T04:59:26;96168.00;;;3.77;100.00
11676;BME280;5894;42.768;23.404;2024-02-15T05:01:58;96115.66;;;3.40;100.00
11676;BME280;5894;42.768;23.404;2024-02-15T05:04:25;96159.50;;;3.64;100.00
11676;BME280;5894;42.768;23.404;2024-02-15T05:06:52;96175.81;;;3.77;100.00
11676;BME280;5894;42.768;23.404;2024-02-15T05:09:19;96177.09;;;3.74;100.00
11676;BME280;5894;42.768;23.404;2024-02-15T05:11:48;96177.06;;;3.69;100.00
11676;BME280;5894;42.768;23.404;2024-02-15T05:14:16;96187.66;;;3.62;100.00
11676;BME280;5894;42.768;23.404;2024-02-15T05:16:45;96183.25;;;3.63;100.00
11676;BME280;5894;42.768;23.404;2024-02-15T05:19:15;96195.97;;;3.59;100.00
11676;BME280;5894;42.768;23.404;2024-02-15T05:21:42;96185.44;;;3.71;100.00
11676;BME280;5894;42.768;23.404;2024-02-15T05:24:10;96188.28;;;3.69;100.00
11676;BME280;5894;42.768;23.404;2024-02-15T05:26:39;96186.63;;;3.63;100.00
11676;BME280;5894;42.768;23.404;2024-02-15T05:29:08;96192.53;;;3.37;100.00
11676;BME280;5894;42.768;23.404;2024-02-15T05:31:36;96193.22;;;3.49;100.00
11676;BME280;5894;42.768;23.404;2024-02-15T05:34:06;96199.16;;;3.45;100.00
11676;BME280;5894;42.768;23.404;2024-02-15T05:36:38;96203.09;;;3.47;100.00
11676;BME280;5894;42.768;23.404;2024-02-15T05:39:05;96199.00;;;3.51;100.00
11676;BME280;5894;42.768;23.404;2024-02-15T05:41:32;96212.28;;;3.50;100.00
11676;BME280;5894;42.768;23.404;2024-02-15T05:43:59;96204.22;;;3.51;100.00
11676;BME280;5894;42.768;23.404;2024-02-15T05:46:26;96207.28;;;3.48;100.00
11676;BME280;5894;42.768;23.404;2024-02-15T05:48:54;96209.44;;;3.51;100.00
11676;BME280;5894;42.768;23.404;2024-02-15T05:51:22;96209.34;;;3.46;100.00
11676;BME280;5894;42.768;23.404;2024-02-15T05:53:50;96211.25;;;3.51;100.00
11676;BME280;5894;42.768;23.404;2024-02-15T05:56:20;96212.03;;;3.51;100.00
11676;BME280;5894;42.768;23.404;2024-02-15T05:58:47;96222.28;;;3.58;100.00
11676;BME280;5894;42.768;23.404;2024-02-15T06:01:14;96226.94;;;3.56;100.00
11676;BME280;5894;42.768;23.404;2024-02-15T06:03:41;96222.69;;;3.50;100.00
11676;BME280;5894;42.768;23.404;2024-02-15T06:06:10;96234.78;;;3.56;100.00
11676;BME280;5894;42.768;23.404;2024-02-15T06:08:37;96227.69;;;3.51;100.00
11676;BME280;5894;42.768;23.404;2024-02-15T06:11:05;96213.94;;;3.39;100.00
11676;BME280;5894;42.768;23.404;2024-02-15T06:13:33;96242.59;;;3.56;100.00
11676;BME280;5894;42.768;23.404;2024-02-15T06:16:00;96241.81;;;3.55;100.00
11676;BME280;5894;42.768;23.404;2024-02-15T06:18:28;96241.00;;;3.55;100.00
11676;BME280;5894;42.768;23.404;2024-02-15T06:20:59;96169.13;;;3.04;100.00
11676;BME280;5894;42.768;23.404;2024-02-15T06:23:27;96243.56;;;3.50;100.00
11676;BME280;5894;42.768;23.404;2024-02-15T06:25:59;96234.41;;;3.47;100.00
11676;BME280;5894;42.768;23.404;2024-02-15T06:28:28;96250.91;;;3.53;100.00
11676;BME280;5894;42.768;23.404;2024-02-15T06:31:13;96256.97;;;3.58;100.00
11676;BME280;5894;42.768;23.404;2024-02-15T06:33:57;96265.78;;;3.52;100.00
11676;BME280;5894;42.768;23.404;2024-02-15T06:36:47;96262.38;;;3.52;100.00
11676;BME280;5894;42.768;23.404;2024-02-15T06:39:32;96261.66;;;3.56;100.00
11676;BME280;5894;42.768;23.404;2024-02-15T06:42:06;96267.31;;;3.70;100.00
11676;BME280;5894;42.768;23.404;2024-02-15T06:44:35;96269.28;;;3.80;100.00
11676;BME280;5894;42.768;23.404;2024-02-15T06:47:02;96264.38;;;3.83;100.00
11676;BME280;5894;42.768;23.404;2024-02-15T06:49:29;96267.41;;;3.97;100.00
11676;BME280;5894;42.768;23.404;2024-02-15T06:51:56;96265.91;;;4.01;100.00
11676;BME280;5894;42.768;23.404;2024-02-15T06:54:24;96269.47;;;4.17;100.00
11676;BME280;5894;42.768;23.404;2024-02-15T06:56:51;96267.06;;;4.32;100.00
11676;BME280;5894;42.768;23.404;2024-02-15T06:59:20;96264.78;;;4.40;100.00
11676;BME280;5894;42.768;23.404;2024-02-15T07:01:49;96267.50;;;4.51;100.00
11676;BME280;5894;42.768;23.404;2024-02-15T07:04:17;96261.84;;;4.59;100.00
11676;BME280;5894;42.768;23.404;2024-02-15T07:06:44;96264.03;;;4.67;100.00
11676;BME280;5894;42.768;23.404;2024-02-15T07:09:15;96261.94;;;4.69;100.00
11676;BME280;5894;42.768;23.404;2024-02-15T07:11:46;96264.06;;;4.72;100.00
11676;BME280;5894;42.768;23.404;2024-02-15T07:14:13;96269.53;;;4.70;100.00
11676;BME280;5894;42.768;23.404;2024-02-15T07:16:44;96269.09;;;4.78;100.00
11676;BME280;5894;42.768;23.404;2024-02-15T07:19:12;96273.03;;;4.81;100.00
11676;BME280;5894;42.768;23.404;2024-02-15T07:21:40;96259.72;;;4.83;100.00
11676;BME280;5894;42.768;23.404;2024-02-15T07:24:07;96266.28;;;4.85;100.00
11676;BME280;5894;42.768;23.404;2024-02-15T07:26:35;96197.75;;;4.46;100.00
11676;BME280;5894;42.768;23.404;2024-02-15T07:29:02;96261.00;;;4.80;100.00
11676;BME280;5894;42.768;23.404;2024-02-15T07:31:31;96244.75;;;4.73;100.00
11676;BME280;5894;42.768;23.404;2024-02-15T07:33:59;96269.00;;;4.95;100.00
11676;BME280;5894;42.768;23.404;2024-02-15T07:36:27;96273.19;;;4.96;100.00
11676;BME280;5894;42.768;23.404;2024-02-15T07:38:54;96244.13;;;4.93;100.00
11676;BME280;5894;42.768;23.404;2024-02-15T07:41:23;96257.84;;;5.05;100.00
11676;BME280;5894;42.768;23.404;2024-02-15T07:43:51;96255.25;;;5.10;100.00
11676;BME280;5894;42.768;23.404;2024-02-15T07:46:20;96256.13;;;5.21;100.00
11676;BME280;5894;42.768;23.404;2024-02-15T07:48:48;96251.97;;;5.25;100.00
11676;BME280;5894;42.768;23.404;2024-02-15T07:51:16;96255.47;;;5.35;100.00
11676;BME280;5894;42.768;23.404;2024-02-15T07:53:45;96253.38;;;5.37;100.00
11676;BME280;5894;42.768;23.404;2024-02-15T07:56:14;96253.38;;;5.37;100.00
11676;BME280;5894;42.768;23.404;2024-02-15T07:58:41;96250.22;;;5.35;100.00
11676;BME280;5894;42.768;23.404;2024-02-15T08:01:12;96262.28;;;5.41;100.00
11676;BME280;5894;42.768;23.404;2024-02-15T08:03:39;96238.91;;;5.25;100.00
11676;BME280;5894;42.768;23.404;2024-02-15T08:06:10;96254.19;;;5.38;100.00
11676;BME280;5894;42.768;23.404;2024-02-15T08:08:38;96250.53;;;5.44;100.00
11676;BME280;5894;42.768;23.404;2024-02-15T08:11:08;96254.75;;;5.45;100.00
11676;BME280;5894;42.768;23.404;2024-02-15T08:13:43;96252.72;;;5.57;100.00
11676;BME280;5894;42.768;23.404;2024-02-15T08:16:10;96256.94;;;5.63;100.00
11676;BME280;5894;42.768;23.404;2024-02-15T08:18:38;96250.19;;;5.67;100.00
11676;BME280;5894;42.768;23.404;2024-02-15T08:21:05;96248.59;;;5.66;100.00
11676;BME280;5894;42.768;23.404;2024-02-15T08:23:32;96251.81;;;5.78;100.00
11676;BME280;5894;42.768;23.404;2024-02-15T08:25:59;96240.06;;;5.81;100.00
11676;BME280;5894;42.768;23.404;2024-02-15T08:28:27;96245.63;;;5.89;100.00
11676;BME280;5894;42.768;23.404;2024-02-15T08:30:54;96253.72;;;5.93;100.00
11676;BME280;5894;42.768;23.404;2024-02-15T08:33:23;96241.97;;;5.91;100.00
11676;BME280;5894;42.768;23.404;2024-02-15T08:35:50;96243.59;;;6.02;100.00
11676;BME280;5894;42.768;23.404;2024-02-15T08:38:20;96238.84;;;5.99;100.00
11676;BME280;5894;42.768;23.404;2024-02-15T08:40:48;96244.63;;;6.06;100.00
11676;BME280;5894;42.768;23.404;2024-02-15T08:43:15;96242.31;;;6.09;100.00
11676;BME280;5894;42.768;23.404;2024-02-15T08:45:43;96245.72;;;6.10;100.00
11676;BME280;5894;42.768;23.404;2024-02-15T08:48:10;96246.25;;;6.17;100.00
11676;BME280;5894;42.768;23.404;2024-02-15T08:50:38;96245.75;;;6.20;100.00
11676;BME280;5894;42.768;23.404;2024-02-15T08:53:07;96241.31;;;6.25;100.00
11676;BME280;5894;42.768;23.404;2024-02-15T08:55:34;96239.75;;;6.30;100.00
11676;BME280;5894;42.768;23.404;2024-02-15T08:58:01;96242.13;;;6.31;100.00
11676;BME280;5894;42.768;23.404;2024-02-15T09:00:29;96246.31;;;6.32;100.00
11676;BME280;5894;42.768;23.404;2024-02-15T09:02:58;96237.69;;;6.32;100.00
11676;BME280;5894;42.768;23.404;2024-02-15T09:05:25;96242.13;;;6.36;100.00
11676;BME280;5894;42.768;23.404;2024-02-15T09:07:52;96227.22;;;6.42;100.00
11676;BME280;5894;42.768;23.404;2024-02-15T09:10:19;96238.25;;;6.49;100.00
11676;BME280;5894;42.768;23.404;2024-02-15T09:12:48;96245.84;;;6.55;100.00
11676;BME280;5894;42.768;23.404;2024-02-15T09:15:15;96234.88;;;6.63;100.00
11676;BME280;5894;42.768;23.404;2024-02-15T09:17:43;96237.22;;;6.65;100.00
11676;BME280;5894;42.768;23.404;2024-02-15T09:20:13;96237.75;;;6.67;100.00
11676;BME280;5894;42.768;23.404;2024-02-15T09:22:47;96240.94;;;6.74;100.00
11676;BME280;5894;42.768;23.404;2024-02-15T09:25:14;96236.47;;;6.80;100.00
11676;BME280;5894;42.768;23.404;2024-02-15T09:27:42;96249.03;;;6.78;99.55
11676;BME280;5894;42.768;23.404;2024-02-15T09:30:10;96228.31;;;6.76;100.00
11676;BME280;5894;42.768;23.404;2024-02-15T09:32:38;96235.16;;;6.77;99.46
11676;BME280;5894;42.768;23.404;2024-02-15T09:35:06;96187.16;;;6.56;99.59
11676;BME280;5894;42.768;23.404;2024-02-15T09:37:35;96229.13;;;6.92;100.00
11676;BME280;5894;42.768;23.404;2024-02-15T09:40:09;96213.13;;;6.88;99.34
11676;BME280;5894;42.768;23.404;2024-02-15T09:42:37;96222.84;;;6.98;98.90
11676;BME280;5894;42.768;23.404;2024-02-15T09:45:05;96223.91;;;7.02;98.41
11676;BME280;5894;42.768;23.404;2024-02-15T09:47:34;96227.56;;;7.01;98.47
11676;BME280;5894;42.768;23.404;2024-02-15T09:50:01;96225.47;;;7.08;99.39
11676;BME280;5894;42.768;23.404;2024-02-15T09:52:31;96213.13;;;7.09;97.29
11676;BME280;5894;42.768;23.404;2024-02-15T09:55:02;96214.47;;;7.16;97.07
11676;BME280;5894;42.768;23.404;2024-02-15T09:57:30;96218.63;;;7.17;98.71
11676;BME280;5894;42.768;23.404;2024-02-15T09:59:59;96227.06;;;7.24;91.21
11676;BME280;5894;42.768;23.404;2024-02-15T10:02:26;96214.19;;;7.18;90.14
11676;BME280;5894;42.768;23.404;2024-02-15T10:04:53;96244.63;;;7.14;93.22
11676;BME280;5894;42.768;23.404;2024-02-15T10:07:23;96210.50;;;7.19;93.29
11676;BME280;5894;42.768;23.404;2024-02-15T10:09:50;96201.34;;;7.26;95.22
11676;BME280;5894;42.768;23.404;2024-02-15T10:12:18;96196.84;;;7.27;95.16
11676;BME280;5894;42.768;23.404;2024-02-15T10:14:50;96146.78;;;6.98;94.60
11676;BME280;5894;42.768;23.404;2024-02-15T10:17:18;96168.81;;;7.22;93.78
11676;BME280;5894;42.768;23.404;2024-02-15T10:20:02;96186.63;;;7.35;95.38
11676;BME280;5894;42.768;23.404;2024-02-15T10:22:29;96177.16;;;7.40;95.84
11676;BME280;5894;42.768;23.404;2024-02-15T10:25:10;96176.09;;;7.51;95.46
11676;BME280;5894;42.768;23.404;2024-02-15T10:27:39;96172.91;;;7.59;94.71
11676;BME280;5894;42.768;23.404;2024-02-15T10:30:16;96167.97;;;7.57;93.23
11676;BME280;5894;42.768;23.404;2024-02-15T10:32:44;96170.81;;;7.61;93.74
11676;BME280;5894;42.768;23.404;2024-02-15T10:35:19;96166.09;;;7.63;94.85
11676;BME280;5894;42.768;23.404;2024-02-15T10:37:48;96167.41;;;7.65;92.86
11676;BME280;5894;42.768;23.404;2024-02-15T10:40:20;96157.13;;;7.69;92.11
11676;BME280;5894;42.768;23.404;2024-02-15T10:42:51;96158.72;;;7.70;93.34
11676;BME280;5894;42.768;23.404;2024-02-15T10:45:18;96117.03;;;7.53;94.22
11676;BME280;5894;42.768;23.404;2024-02-15T10:47:45;96149.75;;;7.81;94.62
11676;BME280;5894;42.768;23.404;2024-02-15T10:50:13;96149.47;;;7.88;94.16
11676;BME280;5894;42.768;23.404;2024-02-15T10:52:47;96150.25;;;7.88;91.81
11676;BME280;5894;42.768;23.404;2024-02-15T10:55:24;96148.91;;;7.96;92.58
11676;BME280;5894;42.768;23.404;2024-02-15T10:57:56;96144.69;;;7.95;91.02
11676;BME280;5894;42.768;23.404;2024-02-15T11:00:30;96143.88;;;8.04;90.20
11676;BME280;5894;42.768;23.404;2024-02-15T11:03:01;96144.09;;;8.13;91.75
11676;BME280;5894;42.768;23.404;2024-02-15T11:05:34;96137.81;;;8.09;90.13
11676;BME280;5894;42.768;23.404;2024-02-15T11:08:04;96129.63;;;8.10;91.44
11676;BME280;5894;42.768;23.404;2024-02-15T11:10:33;96137.97;;;8.23;90.54
11676;BME280;5894;42.768;23.404;2024-02-15T11:13:03;96133.75;;;8.27;91.17
11676;BME280;5894;42.768;23.404;2024-02-15T11:15:46;96132.97;;;8.31;89.39
11676;BME280;5894;42.768;23.404;2024-02-15T11:18:43;96127.38;;;8.43;90.29
11676;BME280;5894;42.768;23.404;2024-02-15T11:21:16;96123.88;;;8.53;91.48
11676;BME280;5894;42.768;23.404;2024-02-15T11:23:44;96124.66;;;8.58;90.35
11676;BME280;5894;42.768;23.404;2024-02-15T11:26:45;96115.91;;;8.68;91.17
11676;BME280;5894;42.768;23.404;2024-02-15T11:32:37;96113.91;;;8.83;87.38
11676;BME280;5894;42.768;23.404;2024-02-15T11:35:06;96120.19;;;8.93;89.22
11676;BME280;5894;42.768;23.404;2024-02-15T11:38:06;96106.44;;;8.96;88.00
11676;BME280;5894;42.768;23.404;2024-02-15T11:41:01;96115.16;;;9.20;87.11
11676;BME280;5894;42.768;23.404;2024-02-15T11:43:48;96117.16;;;9.33;87.01
11676;BME280;5894;42.768;23.404;2024-02-15T11:46:24;96111.72;;;9.48;86.96
11676;BME280;5894;42.768;23.404;2024-02-15T11:48:56;96106.59;;;9.57;82.99
11676;BME280;5894;42.768;23.404;2024-02-15T11:51:25;96110.53;;;9.60;82.56
11676;BME280;5894;42.768;23.404;2024-02-15T11:54:03;96106.47;;;9.67;81.23
11676;BME280;5894;42.768;23.404;2024-02-15T11:56:48;96107.72;;;9.75;82.35
11676;BME280;5894;42.768;23.404;2024-02-15T11:59:19;96109.31;;;9.76;81.24
11676;BME280;5894;42.768;23.404;2024-02-15T12:01:57;96109.84;;;9.73;81.39
11676;BME280;5894;42.768;23.404;2024-02-15T12:04:43;96110.28;;;9.80;80.10
11676;BME280;5894;42.768;23.404;2024-02-15T12:07:28;96102.81;;;9.87;81.18
11676;BME280;5894;42.768;23.404;2024-02-15T12:10:16;96109.84;;;9.97;79.79
11676;BME280;5894;42.768;23.404;2024-02-15T12:13:00;96102.63;;;10.02;79.92
11676;BME280;5894;42.768;23.404;2024-02-15T12:15:56;96117.88;;;10.05;77.86
11676;BME280;5894;42.768;23.404;2024-02-15T12:18:42;96029.63;;;9.65;76.74
11676;BME280;5894;42.768;23.404;2024-02-15T12:21:14;96094.31;;;10.14;77.85
11676;BME280;5894;42.768;23.404;2024-02-15T12:23:43;96092.63;;;10.23;77.04
11676;BME280;5894;42.768;23.404;2024-02-15T12:26:11;96100.75;;;10.26;76.83
11676;BME280;5894;42.768;23.404;2024-02-15T12:28:40;96092.97;;;10.35;75.80
11676;BME280;5894;42.768;23.404;2024-02-15T12:31:09;96091.19;;;10.30;77.03
11676;BME280;5894;42.768;23.404;2024-02-15T12:33:38;96100.88;;;10.35;74.48
11676;BME280;5894;42.768;23.404;2024-02-15T12:36:06;96091.63;;;10.38;74.92
11676;BME280;5894;42.768;23.404;2024-02-15T12:38:35;96027.78;;;10.03;76.61
11676;BME280;5894;42.768;23.404;2024-02-15T12:41:04;96081.72;;;10.48;76.59
11676;BME280;5894;42.768;23.404;2024-02-15T12:43:44;96083.75;;;10.51;75.41
11676;BME280;5894;42.768;23.404;2024-02-15T12:46:11;96073.19;;;10.51;74.13
11676;BME280;5894;42.768;23.404;2024-02-15T12:48:38;96071.84;;;10.54;75.14
11676;BME280;5894;42.768;23.404;2024-02-15T12:51:13;96063.50;;;10.65;76.43
11676;BME280;5894;42.768;23.404;2024-02-15T12:53:42;96074.94;;;10.75;75.67
11676;BME280;5894;42.768;23.404;2024-02-15T12:56:09;96048.34;;;10.71;74.71
11676;BME280;5894;42.768;23.404;2024-02-15T12:58:36;96070.78;;;10.87;73.54
11676;BME280;5894;42.768;23.404;2024-02-15T13:01:04;96068.94;;;10.88;73.69
11676;BME280;5894;42.768;23.404;2024-02-15T13:03:31;96076.84;;;10.88;72.37
11676;BME280;5894;42.768;23.404;2024-02-15T13:05:58;96072.72;;;10.82;72.67
11676;BME280;5894;42.768;23.404;2024-02-15T13:08:25;96066.38;;;10.83;72.72
11676;BME280;5894;42.768;23.404;2024-02-15T13:10:54;96061.97;;;10.78;72.54
11676;BME280;5894;42.768;23.404;2024-02-15T13:13:21;96060.00;;;10.84;72.13
11676;BME280;5894;42.768;23.404;2024-02-15T13:15:48;96057.47;;;10.79;72.42
11676;BME280;5894;42.768;23.404;2024-02-15T13:18:17;96025.06;;;10.59;72.50